createdAt,value
2022-12-03T03:20:31.817Z,1.79
2022-12-03T03:25:33.571Z,1.78
2022-12-03T03:30:38.839Z,1.76
2022-12-03T03:35:41.114Z,1.82
2022-12-03T03:40:43.539Z,1.79
2022-12-03T03:45:45.401Z,1.81
2022-12-03T03:50:47.443Z,1.76
2022-12-03T03:55:49.966Z,1.81
2022-12-03T04:00:52.160Z,1.83
2022-12-03T04:05:53.959Z,1.81
2022-12-03T04:11:14.477Z,1.80
2022-12-03T04:16:16.324Z,1.82
2022-12-03T04:21:39.905Z,1.81
2022-12-03T04:27:00.320Z,1.73
2022-12-03T04:32:20.774Z,1.82
2022-12-03T04:37:22.512Z,1.79
2022-12-03T04:42:24.150Z,1.82
2022-12-03T04:47:25.890Z,1.84
2022-12-03T04:52:27.495Z,1.79
2022-12-03T04:57:29.160Z,1.82
2022-12-03T05:02:30.890Z,1.82
2022-12-03T05:07:32.675Z,1.70
2022-12-03T05:12:34.406Z,1.79
2022-12-03T05:17:36.056Z,1.77
2022-12-03T05:22:37.973Z,1.82
2022-12-03T05:27:39.736Z,1.81
2022-12-03T05:32:41.408Z,1.76
2022-12-03T05:37:43.371Z,1.77
2022-12-03T05:42:53.970Z,1.78
2022-12-03T05:47:57.909Z,1.83
2022-12-03T05:52:59.764Z,1.81
2022-12-03T05:58:01.391Z,1.78
2022-12-03T06:03:03.115Z,1.79
2022-12-03T06:08:05.122Z,1.83
2022-12-03T06:13:06.789Z,1.83
2022-12-03T06:18:08.458Z,1.83
2022-12-03T06:23:10.286Z,1.83
2022-12-03T06:28:11.999Z,1.77
2022-12-03T06:33:13.630Z,1.70
2022-12-03T06:38:15.298Z,1.75
2022-12-03T06:43:16.939Z,1.84
2022-12-03T06:48:18.603Z,1.80
2022-12-03T06:53:20.405Z,1.79
2022-12-03T06:58:22.201Z,1.81
2022-12-03T07:03:24.017Z,1.81
2022-12-03T07:08:26.138Z,1.81
2022-12-03T07:13:27.796Z,1.82
2022-12-03T07:18:29.412Z,1.84
2022-12-03T07:23:31.224Z,1.83
2022-12-03T07:28:32.950Z,1.76
2022-12-03T07:33:34.882Z,1.73
2022-12-03T07:38:37.126Z,1.82
2022-12-03T07:43:38.776Z,1.83
2022-12-03T07:48:40.587Z,1.86
2022-12-03T07:53:42.366Z,1.87
2022-12-03T07:58:44.252Z,1.82
2022-12-03T08:03:46.098Z,1.86
2022-12-03T08:08:47.835Z,1.91
2022-12-03T08:13:49.591Z,1.86
2022-12-03T08:18:54.414Z,1.88
2022-12-03T08:23:57.142Z,1.90
2022-12-03T08:28:59.130Z,1.85
2022-12-03T08:34:22.422Z,1.90
2022-12-03T08:39:33.311Z,1.96
2022-12-03T08:44:41.045Z,1.93
2022-12-03T08:49:51.957Z,1.96
2022-12-03T08:54:56.106Z,2.02
2022-12-03T09:00:24.764Z,1.97
2022-12-03T09:05:32.533Z,1.97
2022-12-03T09:10:34.189Z,1.91
2022-12-03T09:15:35.847Z,1.99
2022-12-03T09:20:37.642Z,2.00
2022-12-03T09:25:39.362Z,2.01
2022-12-03T09:30:41.081Z,2.02
2022-12-03T09:35:42.760Z,2.01
2022-12-03T09:40:44.608Z,2.03
2022-12-03T09:45:47.784Z,2.03
2022-12-03T09:50:50.872Z,2.06
2022-12-03T09:55:53.169Z,2.06
2022-12-03T10:00:55.645Z,2.02
2022-12-03T10:05:58.079Z,2.05
2022-12-03T10:11:00.234Z,2.09
2022-12-03T10:16:02.184Z,1.94
2022-12-03T10:21:04.010Z,2.04
2022-12-03T10:26:05.850Z,2.10
2022-12-03T10:31:10.975Z,2.06
2022-12-03T10:36:24.607Z,2.14
2022-12-03T10:41:28.256Z,2.12
2022-12-03T10:46:30.120Z,2.06
2022-12-03T10:51:32.124Z,2.10
2022-12-03T10:56:33.905Z,2.10
2022-12-03T11:01:35.652Z,2.01
2022-12-03T11:06:37.428Z,2.13
2022-12-03T11:11:39.540Z,2.12
2022-12-03T11:16:41.340Z,2.14
2022-12-03T11:22:05.015Z,2.12
2022-12-03T11:27:17.152Z,2.13
2022-12-03T11:32:43.501Z,2.11
2022-12-03T11:37:45.179Z,2.14
2022-12-03T11:42:48.073Z,2.17
2022-12-03T11:47:58.916Z,2.15
2022-12-03T11:53:14.497Z,2.13
2022-12-03T11:58:18.700Z,2.14
2022-12-03T12:03:33.174Z,2.16
2022-12-03T12:08:38.459Z,2.15
2022-12-03T12:13:40.279Z,2.18
2022-12-03T12:18:53.725Z,2.17
2022-12-03T12:23:56.872Z,2.22
2022-12-03T12:28:58.564Z,2.18
2022-12-03T12:34:00.414Z,2.24
2022-12-03T12:39:02.213Z,2.23
2022-12-03T12:44:10.223Z,2.21
2022-12-03T12:49:13.720Z,2.21
2022-12-03T12:54:20.692Z,2.25
2022-12-03T12:59:24.505Z,2.21
2022-12-03T13:04:30.273Z,2.20
2022-12-03T13:09:33.175Z,2.21
2022-12-03T13:14:37.016Z,2.24
2022-12-03T13:19:47.575Z,2.24
2022-12-03T13:24:54.077Z,2.25
2022-12-03T13:30:08.615Z,2.26
2022-12-03T13:35:10.247Z,2.25
2022-12-03T13:40:26.907Z,2.27
2022-12-03T13:45:34.229Z,2.27
2022-12-03T13:50:46.204Z,2.28
2022-12-03T13:55:51.613Z,2.22
2022-12-03T14:00:53.228Z,2.27
2022-12-03T14:05:54.881Z,2.26
2022-12-03T14:11:00.348Z,2.27
2022-12-03T14:16:02.518Z,2.23
2022-12-03T14:21:04.182Z,2.25
2022-12-03T14:26:05.962Z,2.23
2022-12-03T14:31:07.707Z,2.24
2022-12-03T14:36:09.567Z,2.25
2022-12-03T14:41:31.382Z,2.24
2022-12-03T14:46:33.058Z,2.25
2022-12-03T14:51:34.718Z,2.26
2022-12-03T14:56:36.578Z,2.27
2022-12-03T15:01:38.399Z,2.22
2022-12-03T15:06:40.516Z,2.24
2022-12-03T15:11:46.178Z,2.24
2022-12-03T15:16:48.555Z,2.25
2022-12-03T15:21:50.281Z,2.24
2022-12-03T15:26:53.609Z,2.26
2022-12-03T15:31:56.082Z,2.25
2022-12-03T15:36:58.060Z,2.23
2022-12-03T15:41:59.811Z,2.24
2022-12-03T15:47:01.688Z,2.24
2022-12-03T15:52:04.670Z,2.20
2022-12-03T15:57:07.319Z,2.21
2022-12-03T16:02:10.273Z,2.22
2022-12-03T16:07:14.551Z,2.23
2022-12-03T16:12:16.204Z,2.25
2022-12-03T16:17:18.491Z,2.23
2022-12-03T16:22:20.258Z,2.25
2022-12-03T16:27:25.704Z,2.25
2022-12-03T16:32:27.925Z,2.24
2022-12-03T16:37:30.084Z,2.24
2022-12-03T16:42:32.161Z,2.20
2022-12-03T16:47:34.792Z,2.24
2022-12-03T16:52:37.057Z,2.24
2022-12-03T16:57:39.251Z,2.23
2022-12-03T17:02:41.195Z,2.27
2022-12-03T17:07:43.569Z,2.22
2022-12-03T17:13:08.866Z,2.19
2022-12-03T17:18:07.563Z,2.16
2022-12-03T17:23:09.243Z,2.20
2022-12-03T17:28:11.134Z,2.25
2022-12-03T17:33:12.896Z,2.27
2022-12-03T17:38:15.194Z,2.20
2022-12-03T17:43:17.254Z,2.26
2022-12-03T17:48:19.106Z,2.26
2022-12-03T17:53:20.851Z,2.27
2022-12-03T17:58:22.843Z,2.25
2022-12-03T18:03:24.992Z,2.24
2022-12-03T18:08:27.535Z,2.29
2022-12-03T18:13:29.580Z,2.30
2022-12-03T18:18:31.278Z,2.29
2022-12-03T18:23:33.832Z,2.31
2022-12-03T18:28:35.829Z,2.29
2022-12-03T18:33:38.062Z,2.30
2022-12-03T18:38:40.428Z,2.28
2022-12-03T18:43:43.235Z,2.30
2022-12-03T18:48:48.763Z,2.29
2022-12-03T18:53:52.140Z,2.30
2022-12-03T18:58:54.590Z,2.26
2022-12-03T19:03:56.508Z,2.21
2022-12-03T19:09:00.072Z,2.20
2022-12-03T19:14:05.456Z,2.29
2022-12-03T19:19:09.773Z,2.26
2022-12-03T19:24:24.253Z,2.28
2022-12-03T19:29:27.856Z,2.29
2022-12-03T19:34:30.030Z,2.29
2022-12-03T19:39:33.706Z,2.33
2022-12-03T19:44:36.377Z,2.31
2022-12-03T19:49:38.462Z,2.28
2022-12-03T19:54:42.109Z,2.31
2022-12-03T19:59:44.401Z,2.31
2022-12-03T20:04:47.081Z,2.30
2022-12-03T20:09:52.113Z,2.29
2022-12-03T20:14:54.656Z,2.31
2022-12-03T20:19:58.284Z,2.28
2022-12-03T20:25:00.496Z,2.31
2022-12-03T20:30:02.250Z,2.33
2022-12-03T20:35:04.895Z,2.31
2022-12-03T20:40:11.519Z,2.29
2022-12-03T20:45:15.537Z,2.30
2022-12-03T20:50:19.835Z,2.31
2022-12-03T20:55:22.467Z,2.29
2022-12-03T21:00:25.284Z,2.31
2022-12-03T21:05:27.685Z,2.31
2022-12-03T21:10:44.975Z,2.31
2022-12-03T21:15:47.831Z,2.28
2022-12-03T21:20:50.593Z,2.30
2022-12-03T21:25:52.613Z,2.30
2022-12-03T21:30:54.405Z,2.31
2022-12-03T21:35:56.866Z,2.32
2022-12-03T21:40:59.694Z,2.31
2022-12-03T21:47:10.254Z,2.31
2022-12-03T21:51:27.959Z,2.31
2022-12-03T21:56:32.123Z,2.33
2022-12-03T22:01:34.498Z,2.34
2022-12-03T22:06:36.333Z,2.33
2022-12-03T22:11:38.065Z,2.38
2022-12-03T22:16:39.776Z,2.36
2022-12-03T22:21:41.399Z,2.35
2022-12-03T22:26:43.193Z,2.30
2022-12-03T22:31:44.962Z,2.34
2022-12-03T22:36:46.732Z,2.35
2022-12-03T22:41:48.436Z,2.33
2022-12-03T22:46:50.085Z,2.35
2022-12-03T22:51:51.831Z,2.35
2022-12-03T22:56:53.497Z,2.35
2022-12-03T23:01:55.134Z,2.33
2022-12-03T23:06:56.859Z,2.35
2022-12-03T23:11:58.558Z,2.37
2022-12-03T23:17:00.174Z,2.36
2022-12-03T23:22:01.890Z,2.35
2022-12-03T23:27:03.555Z,2.34
2022-12-03T23:32:05.529Z,2.31
2022-12-03T23:37:07.156Z,2.36
2022-12-03T23:42:08.790Z,2.34
2022-12-03T23:47:10.525Z,2.34
2022-12-03T23:52:12.292Z,2.35
2022-12-03T23:57:14.028Z,2.32
